Terminal Aerodrome Forecast
Issued by NWS

Home | Current Version | Previous Version | Text Only | Print | Product List | Glossary On
Versions: 1 2 3 4 5 6 7 8 9 10 11 12 13 14 15 16 17 18 19 20 21 22 23 24 25 26 27 28 29 30 31 32
000
FTUS44 KLZK 261720
TAFADF
TAF
KADF 261720Z 2618/2718 15006KT P6SM BKN100 BKN250
     FM270100 12005KT P6SM VCSH BKN025 OVC040
     FM270400 10004KT 6SM -SHRA BKN015 OVC030
     FM270600 08004KT 3SM -RA BR VCTS OVC010CB
     FM271200 10008KT 5SM BR VCSH OVC020=

USA.gov is the U.S. government's official web portal to all federal, state and local government web resources and services.